Cedar Bonnet Island, New Jersey
Current Conditions -  °F | °C
As of 2:15 PM on Tuesday 21 Oct 2014 (Local Time) from KMJX Reporting Station
Overcast Overcast  
Wind Chill: 63°   Ceiling: 3900
Heat Index: 63°   Visibility: 10mi
Dew Point: 55°   Wind: 0mph
Humidity: 77%   Direction: NA
Pressure: 29.82"   Gusts: NA
Location:  39.7102°N, 74.2577°W
Report Text: KMJX 211815Z AUTO 00000KT 10SM SCT027 BKN039 OVC075 17/13 A2982 RMK AO1 LTG DSNT NE
Loading
Personal Weather Stations






























Interactive Weather Map
Tropical Storm Tracking
New forecast layout! Learn more

10-Day Weather Forecast

Advertisements
Track Severe Weather on mobile